Time;durP1;ratioP1;P1;durP2;ratioP2;P2;SDS_P1;SDS_P2;PMS_P1;PMS_P2;Temp;Humidity;BMP_temperature;BMP_pressure;BME280_temperature;BME280_humidity;BME280_pressure;Samples;Min_cycle;Max_cycle;Signal;HPM_P1;HPM_P2
2023/11/06 16:48:17;;;;;;;14.32;4.90;;;;;;;21.05;46.86;99565.53;5129142;27;20397;-42
2023/11/06 16:50:45;;;;;;;15.73;4.72;;;;;;;21.18;46.23;99559.53;5129210;28;20031;-41
2023/11/06 16:53:11;;;;;;;16.38;4.95;;;;;;;21.23;46.46;99558.72;5129715;28;20053;-43
2023/11/06 16:55:37;;;;;;;15.57;4.43;;;;;;;21.27;46.38;99565.97;5129148;28;20435;-41
2023/11/06 16:58:02;;;;;;;21.23;4.30;;;;;;;21.18;46.47;99564.13;5128261;28;20470;-42
2023/11/06 17:00:27;;;;;;;18.13;5.95;;;;;;;21.12;46.31;99562.56;5128728;28;20102;-40
2023/11/06 17:02:53;;;;;;;21.05;6.53;;;;;;;21.13;46.26;99566.84;5133628;27;20331;-43
2023/11/06 17:05:19;;;;;;;22.77;5.85;;;;;;;21.14;46.29;99572.00;5128885;27;20027;-42
2023/11/06 17:07:45;;;;;;;14.93;5.85;;;;;;;21.06;46.55;99567.97;5129176;28;20019;-42
2023/11/06 17:10:12;;;;;;;17.67;6.15;;;;;;;20.98;47.07;99575.84;5128867;28;20512;-38
2023/11/06 17:12:38;;;;;;;15.50;5.68;;;;;;;20.93;47.01;99575.88;5128711;28;20028;-40
2023/11/06 17:15:05;;;;;;;15.32;5.22;;;;;;;20.72;46.79;99569.72;5128992;27;20092;-43
2023/11/06 17:17:31;;;;;;;16.90;5.70;;;;;;;20.83;46.48;99576.72;5125853;28;20106;-41
2023/11/06 17:19:57;;;;;;;15.73;5.80;;;;;;;20.72;47.05;99592.16;5108420;28;20566;-43
2023/11/06 17:22:23;;;;;;;15.68;5.57;;;;;;;20.68;49.09;99589.19;5113223;28;20030;-45
2023/11/06 17:24:48;;;;;;;20.33;6.53;;;;;;;20.64;47.76;99581.91;5107916;28;20019;-42
2023/11/06 17:27:14;;;;;;;31.63;6.85;;;;;;;20.60;48.33;99587.06;5116229;28;20440;-40
2023/11/06 17:29:40;;;;;;;21.92;6.70;;;;;;;20.60;48.50;99586.22;5126173;28;20029;-40
2023/11/06 17:32:06;;;;;;;18.13;6.50;;;;;;;20.58;48.45;99585.66;5124806;28;20520;-40
2023/11/06 17:34:31;;;;;;;19.17;6.45;;;;;;;20.62;48.23;99590.28;5119703;28;20024;-40
2023/11/06 17:36:57;;;;;;;21.38;6.65;;;;;;;20.49;49.02;99597.03;5126700;28;20012;-41
2023/11/06 17:39:24;;;;;;;35.38;7.20;;;;;;;20.35;48.95;99600.56;5127179;28;20019;-41
2023/11/06 17:41:50;;;;;;;18.20;5.88;;;;;;;20.27;48.43;99602.72;5127124;28;20024;-46
2023/11/06 17:44:18;;;;;;;16.65;6.68;;;;;;;20.25;48.52;99612.19;5126651;28;20019;-44
2023/11/06 17:46:46;;;;;;;29.20;9.15;;;;;;;20.08;48.39;99605.16;5126857;27;20063;-43
2023/11/06 17:49:13;;;;;;;27.60;11.15;;;;;;;20.01;48.65;99601.94;5117778;27;20015;-40
2023/11/06 17:51:38;;;;;;;23.73;8.63;;;;;;;19.96;48.73;99598.41;5109065;27;20036;-41
2023/11/06 17:54:04;;;;;;;30.65;8.25;;;;;;;19.91;50.40;99624.34;5094085;28;20073;-42
2023/11/06 17:56:33;;;;;;;19.55;7.40;;;;;;;19.79;49.87;99629.16;5123589;27;20439;-40
2023/11/06 17:58:58;;;;;;;23.63;9.48;;;;;;;19.10;52.38;99633.75;5114450;28;20027;-41
2023/11/06 18:01:24;;;;;;;24.45;7.63;;;;;;;19.06;52.56;99639.94;5114645;28;20020;-39
2023/11/06 18:03:51;;;;;;;16.42;5.45;;;;;;;18.78;54.26;99646.50;5113644;28;20055;-43
2023/11/06 18:06:17;;;;;;;24.60;5.68;;;;;;;18.22;57.17;99661.16;5114428;28;20088;-43
2023/11/06 18:08:43;;;;;;;17.90;5.57;;;;;;;18.15;57.50;99664.06;5114362;28;20104;-47
2023/11/06 18:11:08;;;;;;;21.83;9.32;;;;;;;18.08;57.74;99658.06;5114500;28;20136;-44
2023/11/06 18:13:33;;;;;;;24.55;6.20;;;;;;;18.15;58.50;99665.94;5119789;27;20058;-41
2023/11/06 18:15:59;;;;;;;13.50;5.20;;;;;;;18.08;58.68;99662.63;5114195;28;20069;-46
2023/11/06 18:18:27;;;;;;;17.02;5.45;;;;;;;18.23;58.50;99672.75;5120330;27;20015;-42
2023/11/06 18:20:52;;;;;;;13.80;5.10;;;;;;;18.14;58.36;99673.22;5134196;27;20482;-41
2023/11/06 18:23:18;;;;;;;13.68;5.20;;;;;;;18.43;57.54;99677.47;5134743;27;20030;-41
2023/11/06 18:25:45;;;;;;;14.25;5.05;;;;;;;18.66;56.26;99677.13;5134552;27;20102;-43
2023/11/06 18:28:11;;;;;;;16.15;6.57;;;;;;;18.61;56.02;99677.09;5134469;27;20028;-44
2023/11/06 18:30:36;;;;;;;18.75;7.38;;;;;;;18.70;55.32;99694.41;5128481;27;20502;-45
2023/11/06 18:33:06;;;;;;;27.95;13.85;;;;;;;18.79;55.46;99694.75;5095243;28;20711;-44
2023/11/06 18:35:34;;;;;;;18.42;6.07;;;;;;;18.74;55.19;99695.50;5113865;28;20054;-43
2023/11/06 18:38:00;;;;;;;13.80;5.07;;;;;;;18.76;54.71;99697.97;5113854;28;20471;-44
2023/11/06 18:40:25;;;;;;;14.50;4.40;;;;;;;18.81;54.62;99699.91;5113839;28;20107;-42
2023/11/06 18:42:51;;;;;;;10.75;4.93;;;;;;;18.81;54.31;99697.19;5113503;28;20027;-40
2023/11/06 18:45:17;;;;;;;14.38;5.38;;;;;;;18.63;54.79;99699.19;5122203;27;20031;-45
2023/11/06 18:47:43;;;;;;;19.25;6.68;;;;;;;18.69;55.09;99708.16;5115688;27;20054;-46
2023/11/06 18:50:08;;;;;;;12.68;5.45;;;;;;;18.82;54.54;99706.94;5124374;27;20449;-46
2023/11/06 18:52:34;;;;;;;16.73;5.63;;;;;;;18.71;54.98;99714.09;5133971;27;20035;-43
2023/11/06 18:55:00;;;;;;;12.18;5.47;;;;;;;18.68;55.64;99712.72;5133489;27;20018;-44
2023/11/06 18:57:25;;;;;;;20.05;6.75;;;;;;;18.80;55.75;99711.75;5122511;27;20019;-43
2023/11/06 18:59:51;;;;;;;19.17;7.47;;;;;;;18.67;56.43;99705.69;5132946;27;20031;-44
2023/11/06 19:02:17;;;;;;;20.55;6.88;;;;;;;18.68;56.49;99712.72;5134118;27;20022;-44
2023/11/06 19:04:44;;;;;;;16.50;6.43;;;;;;;18.55;56.90;99721.25;5133476;27;20060;-45
2023/11/06 19:07:11;;;;;;;14.05;6.05;;;;;;;18.61;67.96;99725.59;5134053;27;20402;-43
2023/11/06 19:09:38;;;;;;;12.43;5.70;;;;;;;18.65;68.22;99720.50;5133597;27;20031;-43
2023/11/06 19:12:05;;;;;;;16.50;6.18;;;;;;;19.06;61.11;99724.34;5133621;27;20044;-39
2023/11/06 19:14:30;;;;;;;19.15;6.43;;;;;;;19.19;57.37;99727.66;5133464;27;20466;-43
2023/11/06 19:17:01;;;;;;;26.38;6.97;;;;;;;19.13;56.82;99724.09;5133866;27;20015;-40
2023/11/06 19:19:26;;;;;;;22.35;7.65;;;;;;;19.03;57.18;99726.75;5120006;27;20103;-46
2023/11/06 19:21:53;;;;;;;17.23;7.10;;;;;;;18.95;57.85;99728.06;5113626;27;20435;-43
2023/11/06 19:24:21;;;;;;;15.95;6.85;;;;;;;18.91;57.99;99733.16;5119268;27;20489;-40
2023/11/06 19:26:49;;;;;;;21.52;7.85;;;;;;;18.74;56.64;99743.22;5133433;27;20023;-46
2023/11/06 19:29:15;;;;;;;21.13;7.35;;;;;;;18.29;57.62;99747.94;5133235;27;20019;-46
2023/11/06 19:31:40;;;;;;;20.85;7.40;;;;;;;18.16;58.84;99759.94;5133386;27;20034;-42
2023/11/06 19:34:07;;;;;;;19.85;6.63;;;;;;;18.09;59.62;99758.50;5133229;27;20026;-44
2023/11/06 19:36:33;;;;;;;16.00;6.80;;;;;;;18.10;59.05;99749.34;5125407;27;20066;-41
2023/11/06 19:38:59;;;;;;;16.27;7.43;;;;;;;18.15;58.73;99754.81;5112791;28;20055;-42
2023/11/06 19:41:26;;;;;;;17.00;6.80;;;;;;;18.27;59.09;99770.81;5112648;28;20035;-41
2023/11/06 19:43:51;;;;;;;12.10;6.78;;;;;;;18.28;59.23;99772.44;5112381;28;20024;-43
2023/11/06 19:46:17;;;;;;;17.45;6.97;;;;;;;18.27;58.87;99768.91;5112209;28;20098;-41
2023/11/06 19:48:42;;;;;;;21.00;7.25;;;;;;;18.15;58.87;99770.97;5112663;28;20490;-43
2023/11/06 19:51:11;;;;;;;18.13;7.25;;;;;;;18.04;59.69;99775.41;5112453;28;20028;-46
2023/11/06 19:53:37;;;;;;;20.33;6.90;;;;;;;17.92;60.29;99775.53;5112464;28;20050;-43
2023/11/06 19:56:03;;;;;;;19.27;8.00;;;;;;;17.92;60.04;99775.53;5112041;28;20046;-38
2023/11/06 19:58:29;;;;;;;16.70;7.20;;;;;;;17.54;62.15;99776.38;5114788;27;20545;-41
2023/11/06 20:00:55;;;;;;;23.65;7.78;;;;;;;17.45;62.07;99775.97;5113094;27;20028;-40
2023/11/06 20:03:21;;;;;;;17.40;6.68;;;;;;;17.56;61.57;99783.13;5115023;27;20027;-46
2023/11/06 20:05:46;;;;;;;20.60;7.25;;;;;;;17.43;62.48;99780.81;5115854;27;20023;-45
2023/11/06 20:08:12;;;;;;;19.02;7.18;;;;;;;17.61;62.00;99801.25;5111927;28;20030;-45
2023/11/06 20:10:39;;;;;;;15.40;6.90;;;;;;;17.66;61.26;99798.59;5128916;27;20519;-43
2023/11/06 20:13:09;;;;;;;13.77;6.88;;;;;;;17.46;62.35;99799.16;5132461;27;20084;-43
2023/11/06 20:15:35;;;;;;;18.92;7.32;;;;;;;17.58;62.28;99797.16;5133009;27;20076;-40
2023/11/06 20:18:01;;;;;;;22.38;7.50;;;;;;;17.68;61.48;99801.84;5132713;27;20026;-43
2023/11/06 20:20:31;;;;;;;15.98;6.63;;;;;;;17.51;61.25;99803.78;5132598;27;20046;-39
2023/11/06 20:22:58;;;;;;;14.85;6.93;;;;;;;17.10;62.73;99824.69;5132952;27;20023;-43
2023/11/06 20:25:23;;;;;;;15.15;6.00;;;;;;;17.20;63.15;99814.88;5132596;27;20379;-42
2023/11/06 20:27:49;;;;;;;14.32;6.57;;;;;;;17.38;61.97;99811.13;5132608;27;20030;-42
2023/11/06 20:30:15;;;;;;;13.27;5.97;;;;;;;17.42;62.07;99811.47;5118506;28;20024;-42
2023/11/06 20:32:43;;;;;;;10.80;5.90;;;;;;;17.43;61.99;99825.72;5112074;28;20106;-28
2023/11/06 20:35:12;;;;;;;19.15;6.30;;;;;;;17.19;62.62;99818.66;5112047;28;20031;-28
2023/11/06 20:37:37;;;;;;;16.98;6.45;;;;;;;17.16;62.61;99821.81;5111780;28;20084;-28
2023/11/06 20:40:03;;;;;;;13.60;5.85;;;;;;;17.06;63.12;99826.22;5104936;28;20028;-30
2023/11/06 20:42:28;;;;;;;18.15;6.13;;;;;;;17.03;63.59;99821.34;5112493;28;20427;-27
2023/11/06 20:44:55;;;;;;;13.48;6.07;;;;;;;17.03;63.37;99819.47;5118976;28;20359;-29
2023/11/06 20:47:20;;;;;;;11.73;5.32;;;;;;;16.98;63.66;99828.25;5132069;28;20063;-30
2023/11/06 20:49:47;;;;;;;17.60;5.72;;;;;;;16.96;63.61;99827.69;5132317;28;20070;-31
2023/11/06 20:52:13;;;;;;;11.18;4.82;;;;;;;16.70;64.13;99841.72;5132398;28;20038;-28
2023/11/06 20:54:38;;;;;;;12.23;4.70;;;;;;;16.55;64.83;99844.94;5132530;28;20031;-30
2023/11/06 20:57:04;;;;;;;8.68;4.97;;;;;;;16.75;64.18;99844.47;5125019;28;20089;-33
2023/11/06 20:59:29;;;;;;;10.80;4.45;;;;;;;16.76;63.93;99841.56;5111970;28;20035;-28
2023/11/06 21:01:55;;;;;;;9.38;4.60;;;;;;;16.83;64.19;99844.13;5117749;28;20093;-30
2023/11/06 21:04:21;;;;;;;8.82;4.95;;;;;;;16.77;64.66;99842.34;5125666;28;20483;-28
2023/11/06 21:06:48;;;;;;;10.73;4.57;;;;;;;16.84;64.11;99850.31;5121705;28;20035;-37
2023/11/06 21:09:14;;;;;;;10.70;4.57;;;;;;;16.93;63.02;99856.94;5111606;28;20047;-30
2023/11/06 21:11:39;;;;;;;10.68;4.55;;;;;;;16.87;64.66;99852.50;5111453;28;20759;-28
2023/11/06 21:14:05;;;;;;;9.43;4.10;;;;;;;16.78;63.91;99847.50;5112382;28;20023;-31
2023/11/06 21:16:33;;;;;;;12.55;4.45;;;;;;;16.64;63.32;99851.56;5117552;28;20489;-41
2023/11/06 21:19:00;;;;;;;9.20;4.40;;;;;;;16.63;63.30;99857.97;5119160;28;20136;-40
2023/11/06 21:21:25;;;;;;;7.60;4.28;;;;;;;16.75;62.87;99849.84;5120667;28;20019;-42
2023/11/06 21:23:51;;;;;;;11.07;4.57;;;;;;;16.70;63.03;99855.16;5119867;27;20076;-41
2023/11/06 21:26:16;;;;;;;10.70;4.57;;;;;;;16.70;63.83;99861.34;5125604;27;20436;-42
2023/11/06 21:28:42;;;;;;;9.27;4.50;;;;;;;16.62;63.05;99850.97;5126203;27;20714;-42
2023/11/06 21:31:09;;;;;;;10.43;4.78;;;;;;;16.60;63.75;99858.44;5123400;27;20019;-41
2023/11/06 21:33:34;;;;;;;11.30;4.57;;;;;;;16.47;63.69;99856.03;5123216;27;20047;-42
2023/11/06 21:36:00;;;;;;;12.50;4.75;;;;;;;16.54;64.16;99865.59;5126085;27;20107;-43
2023/11/06 21:38:26;;;;;;;10.45;4.50;;;;;;;16.49;64.38;99856.66;5128729;27;20398;-41
2023/11/06 21:40:52;;;;;;;13.63;4.90;;;;;;;16.27;65.04;99857.28;5120989;27;20344;-44
2023/11/06 21:43:17;;;;;;;12.00;5.38;;;;;;;16.14;65.84;99865.59;5124820;27;20023;-42
2023/11/06 21:45:43;;;;;;;9.57;4.68;;;;;;;16.29;65.61;99865.91;5125525;27;20047;-44
2023/11/06 21:48:09;;;;;;;12.25;4.85;;;;;;;16.30;65.93;99862.19;5125884;27;20106;-43
2023/11/06 21:50:35;;;;;;;10.52;5.05;;;;;;;16.36;65.61;99871.97;5135388;27;20038;-40
2023/11/06 21:53:01;;;;;;;12.63;4.78;;;;;;;16.27;64.99;99864.53;5135365;27;20102;-42
2023/11/06 21:55:26;;;;;;;12.57;5.20;;;;;;;15.82;66.53;99863.31;5135131;27;20098;-40
2023/11/06 21:57:52;;;;;;;13.48;5.07;;;;;;;15.80;66.44;99868.94;5135211;27;20022;-44
2023/11/06 22:00:18;;;;;;;9.40;4.00;;;;;;;15.94;65.83;99874.06;5135385;27;20110;-41
2023/11/06 22:02:44;;;;;;;8.90;4.18;;;;;;;15.80;66.46;99870.78;5135124;27;20424;-42
2023/11/06 22:05:10;;;;;;;9.27;4.47;;;;;;;15.75;66.34;99868.81;5134691;27;20023;-44
2023/11/06 22:07:35;;;;;;;6.72;4.50;;;;;;;15.70;66.12;99862.50;5134620;27;20022;-42
2023/11/06 22:10:01;;;;;;;8.23;4.13;;;;;;;15.77;65.83;99855.19;5134755;27;20018;-44
2023/11/06 22:12:27;;;;;;;10.23;4.30;;;;;;;15.79;66.33;99861.13;5134760;27;20076;-41
2023/11/06 22:14:52;;;;;;;9.65;4.13;;;;;;;15.83;65.35;99864.97;5134823;27;20023;-40
2023/11/06 22:17:18;;;;;;;11.52;4.22;;;;;;;15.85;65.42;99870.09;5134351;27;20023;-40
2023/11/06 22:19:44;;;;;;;11.45;3.95;;;;;;;15.86;66.45;99872.56;5134802;27;20660;-39
2023/11/06 22:22:10;;;;;;;10.02;4.30;;;;;;;15.63;66.17;99876.00;5134493;27;20418;-38
2023/11/06 22:24:37;;;;;;;11.63;4.30;;;;;;;15.73;65.47;99875.44;5134169;27;20027;-43
2023/11/06 22:27:03;;;;;;;8.40;4.03;;;;;;;15.79;66.28;99885.25;5134175;27;20015;-41
2023/11/06 22:29:28;;;;;;;10.93;3.97;;;;;;;15.66;66.28;99880.91;5134136;27;20030;-42
2023/11/06 22:31:54;;;;;;;13.23;3.80;;;;;;;15.68;66.62;99872.63;5134185;27;20023;-42
2023/11/06 22:34:19;;;;;;;8.35;3.60;;;;;;;15.73;65.45;99888.88;5134193;27;20486;-42
2023/11/06 22:36:45;;;;;;;8.55;3.63;;;;;;;15.80;65.37;99889.56;5132346;27;20159;-40
2023/11/06 22:39:10;;;;;;;10.05;3.92;;;;;;;15.79;65.95;99891.44;5113834;28;20496;-40
2023/11/06 22:41:35;;;;;;;7.45;3.60;;;;;;;15.82;64.58;99895.50;5112992;28;20050;-41
2023/11/06 22:44:03;;;;;;;8.90;3.85;;;;;;;15.79;64.97;99890.63;5113552;28;20577;-42
2023/11/06 22:46:31;;;;;;;7.18;3.50;;;;;;;15.75;64.48;99897.53;5113003;28;20682;-41
2023/11/06 22:48:56;;;;;;;5.45;3.08;;;;;;;15.70;63.83;99892.81;5112893;28;20503;-43
2023/11/06 22:51:22;;;;;;;9.40;3.53;;;;;;;15.63;64.79;99900.16;5095340;28;20153;-41
2023/11/06 22:53:48;;;;;;;6.97;3.60;;;;;;;15.63;64.60;99903.66;5114053;28;20047;-40
2023/11/06 22:56:13;;;;;;;6.90;3.28;;;;;;;15.73;64.86;99905.78;5113780;28;20018;-40
2023/11/06 22:58:39;;;;;;;8.13;3.70;;;;;;;15.86;63.83;99907.44;5113772;28;20042;-44
2023/11/06 23:01:04;;;;;;;8.60;3.28;;;;;;;15.82;63.16;99904.41;5113763;28;20051;-41
2023/11/06 23:03:32;;;;;;;7.07;3.17;;;;;;;15.82;63.85;99915.13;5113395;28;20076;-40
2023/11/06 23:05:57;;;;;;;5.05;3.20;;;;;;;15.83;63.81;99914.06;5113631;28;20054;-40
2023/11/06 23:08:22;;;;;;;7.70;3.45;;;;;;;15.73;64.01;99913.00;5112959;28;20035;-39
2023/11/06 23:10:48;;;;;;;6.05;3.22;;;;;;;15.75;64.17;99911.75;5113165;28;20024;-39
2023/11/06 23:13:13;;;;;;;8.70;3.42;;;;;;;15.83;64.36;99914.06;5112974;28;20094;-42
2023/11/06 23:15:39;;;;;;;10.18;3.67;;;;;;;15.90;63.76;99913.97;5112988;28;20016;-42
2023/11/06 23:18:04;;;;;;;9.88;3.58;;;;;;;15.85;64.66;99921.88;5113096;28;20020;-39
2023/11/06 23:20:32;;;;;;;5.82;3.25;;;;;;;15.99;63.56;99925.13;5113148;28;20039;-40
2023/11/06 23:23:02;;;;;;;9.05;3.63;;;;;;;15.94;62.67;99931.22;5112881;28;20046;-40
2023/11/06 23:25:27;;;;;;;7.40;3.50;;;;;;;15.83;63.08;99932.03;5112905;28;20062;-41
2023/11/06 23:27:53;;;;;;;8.55;2.95;;;;;;;15.64;64.10;99939.34;5112751;28;20047;-41
2023/11/06 23:30:22;;;;;;;9.77;3.45;;;;;;;15.58;63.46;99941.09;5112795;28;20043;-38
2023/11/06 23:32:48;;;;;;;;;;;;;;;15.90;62.14;99943.47;5113194;28;20023;-42
2023/11/06 23:35:15;;;;;;;6.85;3.28;;;;;;;15.90;62.30;99945.34;5112628;28;19934;-42
2023/11/06 23:37:41;;;;;;;8.27;3.50;;;;;;;15.76;61.58;99936.69;5112233;28;20007;-39
2023/11/06 23:40:07;;;;;;;6.90;3.42;;;;;;;15.60;63.25;99938.19;5112099;28;20031;-38
2023/11/06 23:42:32;;;;;;;9.95;3.28;;;;;;;15.47;63.21;99955.28;5112019;28;20428;-38
2023/11/06 23:45:00;;;;;;;7.93;3.30;;;;;;;15.33;64.85;99951.19;5112214;28;20098;-39
2023/11/06 23:47:25;;;;;;;8.65;3.35;;;;;;;15.44;63.91;99953.09;5111602;28;20446;-39
2023/11/06 23:49:52;;;;;;;8.75;3.63;;;;;;;15.49;63.59;99955.88;5125581;27;20068;-42
2023/11/06 23:52:17;;;;;;;10.10;3.33;;;;;;;15.44;64.61;99967.31;5132531;27;20738;-40
2023/11/06 23:54:43;;;;;;;6.68;3.30;;;;;;;15.34;65.01;99971.59;5132471;27;20102;-39
2023/11/06 23:57:08;;;;;;;9.90;3.67;;;;;;;15.43;64.64;99971.03;5132024;27;20020;-41
2023/11/06 23:59:36;;;;;;;7.03;3.53;;;;;;;15.33;65.71;99969.97;5132475;27;20458;-41
